createdAt,value
2023-04-20T00:00:24.074Z,102651.78
2023-04-20T00:02:50.624Z,102652.03
2023-04-20T00:05:17.291Z,102647.31
2023-04-20T00:07:43.855Z,102652.50
2023-04-20T00:10:10.679Z,102651.88
2023-04-20T00:12:37.154Z,102640.34
2023-04-20T00:15:04.727Z,102630.13
2023-04-20T00:17:31.298Z,102633.84
2023-04-20T00:19:57.880Z,102618.94
2023-04-20T00:22:25.324Z,102624.38
2023-04-20T00:24:52.112Z,102614.88
2023-04-20T00:27:18.621Z,102604.19
2023-04-20T00:29:45.132Z,102600.69
2023-04-20T00:32:11.539Z,102599.13
2023-04-20T00:34:38.036Z,102599.22
2023-04-20T00:37:04.734Z,102592.41
2023-04-20T00:39:31.202Z,102576.09
2023-04-20T00:42:08.909Z,102568.31
2023-04-20T00:44:35.859Z,102574.31
2023-04-20T00:47:02.422Z,102560.16
2023-04-20T00:49:30.759Z,102559.66
2023-04-20T00:52:01.066Z,102556.31
2023-04-20T00:54:30.476Z,102548.28
2023-04-20T00:56:58.056Z,102550.78
2023-04-20T00:59:24.688Z,102524.91
2023-04-20T01:01:51.346Z,102528.25
2023-04-20T01:04:18.837Z,102522.59
2023-04-20T01:06:45.460Z,102525.00
2023-04-20T01:09:12.495Z,102525.13
2023-04-20T01:11:39.522Z,102525.59
2023-04-20T01:14:06.516Z,102521.91
2023-04-20T01:16:34.942Z,102512.28
2023-04-20T01:19:01.614Z,102524.41
2023-04-20T01:21:28.197Z,102495.13
2023-04-20T01:23:54.694Z,102513.84
2023-04-20T01:26:23.304Z,102502.69
2023-04-20T01:28:49.786Z,102491.53
2023-04-20T01:31:16.631Z,102494.88
2023-04-20T01:33:43.268Z,102499.81
2023-04-20T01:36:10.416Z,102482.78
2023-04-20T01:38:37.317Z,102484.81
2023-04-20T01:41:07.058Z,102473.66
2023-04-20T01:43:34.774Z,102483.50
2023-04-20T01:46:01.378Z,102485.19
2023-04-20T01:48:28.066Z,102485.78
2023-04-20T01:50:54.541Z,102470.06
2023-04-20T01:53:21.172Z,102470.06
2023-04-20T01:55:48.638Z,102458.19
2023-04-20T01:58:15.635Z,102465.13
2023-04-20T02:00:42.234Z,102463.69
2023-04-20T02:03:09.260Z,102458.06
2023-04-20T02:05:35.803Z,102456.88
2023-04-20T02:08:02.272Z,102459.13
2023-04-20T02:10:28.751Z,102449.66
2023-04-20T02:12:55.236Z,102454.56
2023-04-20T02:15:21.801Z,102441.13
2023-04-20T02:17:52.471Z,102438.72
2023-04-20T02:20:22.639Z,102431.75
2023-04-20T02:22:49.129Z,102437.50
2023-04-20T02:25:15.695Z,102429.34
2023-04-20T02:27:42.555Z,102430.78
2023-04-20T02:30:10.479Z,102415.78
2023-04-20T02:32:37.204Z,102404.38
2023-04-20T02:35:04.408Z,102413.84
2023-04-20T02:37:31.632Z,102403.28
2023-04-20T02:39:58.302Z,102393.69
2023-04-20T02:42:24.943Z,102403.28
2023-04-20T02:44:52.792Z,102376.03
2023-04-20T02:47:19.657Z,102385.63
2023-04-20T02:49:46.234Z,102382.50
2023-04-20T02:52:12.825Z,102372.53
2023-04-20T02:54:39.241Z,102379.09
2023-04-20T02:57:05.734Z,102372.59
2023-04-20T02:59:32.204Z,102363.19
2023-04-20T03:01:58.837Z,102368.22
2023-04-20T03:04:27.511Z,102362.69
2023-04-20T03:06:54.522Z,102377.66
2023-04-20T03:09:21.409Z,102361.91
2023-04-20T03:11:47.922Z,102354.97
2023-04-20T03:14:14.581Z,102369.09
2023-04-20T03:16:41.924Z,102362.00
2023-04-20T03:19:08.752Z,102353.81
2023-04-20T03:21:35.439Z,102345.03
2023-04-20T03:24:01.919Z,102348.97
2023-04-20T03:26:28.438Z,102346.19
2023-04-20T03:28:54.960Z,102351.13
2023-04-20T03:31:21.553Z,102348.06
2023-04-20T03:33:48.100Z,102354.06
2023-04-20T03:36:14.625Z,102348.50
2023-04-20T03:38:41.089Z,102347.25
2023-04-20T03:41:08.157Z,102354.75
2023-04-20T03:43:35.249Z,102334.47
2023-04-20T03:46:01.993Z,102340.06
2023-04-20T03:48:28.508Z,102336.56
2023-04-20T03:50:55.032Z,102331.00
2023-04-20T03:53:21.829Z,102320.69
2023-04-20T03:55:48.248Z,102322.69
2023-04-20T03:58:15.036Z,102334.94
2023-04-20T04:00:41.502Z,102329.25
2023-04-20T04:03:08.090Z,102309.31
2023-04-20T04:05:34.851Z,102319.38
2023-04-20T04:08:01.407Z,102315.75
2023-04-20T04:10:27.864Z,102299.44
2023-04-20T04:12:54.318Z,102307.13
2023-04-20T04:15:20.949Z,102299.78
2023-04-20T04:17:48.387Z,102294.03
2023-04-20T04:20:15.013Z,102297.38
2023-04-20T04:22:42.162Z,102290.16
2023-04-20T04:25:09.025Z,102287.53
2023-04-20T04:27:35.505Z,102286.28
2023-04-20T04:30:02.719Z,102286.81
2023-04-20T04:32:29.241Z,102281.53
2023-04-20T04:34:55.864Z,102275.25
2023-04-20T04:37:22.554Z,102263.53
2023-04-20T04:39:50.989Z,102260.47
2023-04-20T04:42:17.568Z,102263.00
2023-04-20T04:44:44.962Z,102264.69
2023-04-20T04:47:14.505Z,102256.31
2023-04-20T04:49:41.041Z,102272.88
2023-04-20T04:52:08.911Z,102274.56
2023-04-20T04:54:35.373Z,102260.03
2023-04-20T04:57:02.079Z,102263.81
2023-04-20T04:59:28.519Z,102263.72
2023-04-20T05:01:54.988Z,102279.03
2023-04-20T05:04:21.799Z,102278.63
2023-04-20T05:06:48.311Z,102279.59
2023-04-20T05:09:15.028Z,102260.63
2023-04-20T05:11:41.593Z,102275.97
2023-04-20T05:14:08.177Z,102273.44
2023-04-20T05:16:34.685Z,102266.63
2023-04-20T05:19:01.229Z,102277.19
2023-04-20T05:21:28.370Z,102268.84
2023-04-20T05:23:54.826Z,102274.13
2023-04-20T05:26:21.341Z,102282.88
2023-04-20T05:28:47.800Z,102276.06
2023-04-20T05:31:14.283Z,102262.69
2023-04-20T05:33:41.072Z,102262.84
2023-04-20T05:36:10.920Z,102267.59
2023-04-20T05:38:37.857Z,102261.16
2023-04-20T05:41:04.852Z,102275.53
2023-04-20T05:43:31.403Z,102269.53
2023-04-20T05:45:58.554Z,102262.31
2023-04-20T05:48:29.534Z,102266.63
2023-04-20T05:50:56.720Z,102267.06
2023-04-20T05:53:23.203Z,102259.81
2023-04-20T05:55:50.075Z,102254.25
2023-04-20T05:58:17.171Z,102257.03
2023-04-20T06:00:44.465Z,102263.88
2023-04-20T06:03:11.124Z,102266.53
2023-04-20T06:05:38.010Z,102247.72
2023-04-20T06:08:04.900Z,102249.13
2023-04-20T06:10:34.240Z,102250.38
2023-04-20T06:13:00.944Z,102258.75
2023-04-20T06:15:27.512Z,102239.25
2023-04-20T06:17:54.060Z,102232.03
2023-04-20T06:20:20.812Z,102224.09
2023-04-20T06:22:47.653Z,102223.13
2023-04-20T06:25:15.526Z,102235.53
2023-04-20T06:27:42.467Z,102234.41
2023-04-20T06:30:09.892Z,102242.03
2023-04-20T06:32:36.620Z,102234.25
2023-04-20T06:35:04.279Z,102225.59
2023-04-20T06:37:30.778Z,102240.06
2023-04-20T06:39:57.233Z,102226.41
2023-04-20T06:42:23.715Z,102240.47
2023-04-20T06:44:50.715Z,102229.75
2023-04-20T06:47:17.196Z,102235.59
2023-04-20T06:49:43.703Z,102226.06
2023-04-20T06:52:10.222Z,102219.50
2023-04-20T06:54:36.703Z,102226.06
2023-04-20T06:57:03.185Z,102222.28
2023-04-20T06:59:29.663Z,102235.94
2023-04-20T07:01:56.199Z,102232.97
2023-04-20T07:04:22.708Z,102237.53
2023-04-20T07:06:51.161Z,102242.97
2023-04-20T07:09:19.515Z,102247.16
2023-04-20T07:11:46.302Z,102238.78
2023-04-20T07:14:12.748Z,102250.22
2023-04-20T07:16:39.262Z,102239.91
2023-04-20T07:19:05.746Z,102229.25
2023-04-20T07:21:32.258Z,102236.09
2023-04-20T07:23:59.123Z,102237.34
2023-04-20T07:26:25.819Z,102236.09
2023-04-20T07:28:52.465Z,102237.78
2023-04-20T07:31:19.140Z,102235.69
2023-04-20T07:33:45.631Z,102244.84
2023-04-20T07:36:12.133Z,102239.28
2023-04-20T07:38:38.596Z,102256.22
2023-04-20T07:41:09.624Z,102258.41
2023-04-20T07:43:37.669Z,102252.94
2023-04-20T07:46:04.395Z,102246.22
2023-04-20T07:48:31.964Z,102232.66
2023-04-20T07:50:58.443Z,102241.28
2023-04-20T07:53:24.920Z,102255.19
2023-04-20T07:55:51.562Z,102257.38
2023-04-20T07:58:18.526Z,102234.84
2023-04-20T08:00:48.426Z,102248.75
2023-04-20T08:03:15.598Z,102239.84
2023-04-20T08:05:42.451Z,102251.84
2023-04-20T08:08:09.075Z,102243.22
2023-04-20T08:10:35.647Z,102239.09
2023-04-20T08:13:02.202Z,102227.00
2023-04-20T08:15:28.843Z,102225.75
2023-04-20T08:17:55.717Z,102231.59
2023-04-20T08:20:22.243Z,102227.75
2023-04-20T08:22:49.333Z,102224.03
2023-04-20T08:25:15.963Z,102231.44
2023-04-20T08:27:42.429Z,102212.31
2023-04-20T08:30:09.312Z,102223.78
2023-04-20T08:32:35.945Z,102216.66
2023-04-20T08:35:02.569Z,102211.13
2023-04-20T08:37:31.274Z,102198.94
2023-04-20T08:39:59.111Z,102194.75
2023-04-20T08:42:25.788Z,102196.28
2023-04-20T08:44:53.362Z,102192.06
2023-04-20T08:47:21.468Z,102210.00
2023-04-20T08:49:52.907Z,102204.94
2023-04-20T08:52:19.440Z,102191.06
2023-04-20T08:54:56.098Z,102212.22
2023-04-20T08:57:23.803Z,102201.38
2023-04-20T08:59:50.665Z,102176.88
2023-04-20T09:02:17.209Z,102183.06
2023-04-20T09:04:44.529Z,102186.91
2023-04-20T09:07:21.447Z,102176.25
2023-04-20T09:09:57.524Z,102187.09
2023-04-20T09:12:24.712Z,102181.38
2023-04-20T09:14:52.276Z,102177.47
2023-04-20T09:17:31.323Z,102176.31
2023-04-20T09:19:58.007Z,102180.75
2023-04-20T09:22:35.827Z,102176.94
2023-04-20T09:25:18.983Z,102189.09
2023-04-20T09:27:59.372Z,102179.63
2023-04-20T09:30:36.555Z,102172.09
2023-04-20T09:33:03.937Z,102148.75
2023-04-20T09:35:31.270Z,102146.34
2023-04-20T09:37:57.800Z,102153.31
2023-04-20T09:40:27.666Z,102158.59
2023-04-20T09:42:54.974Z,102157.41
2023-04-20T09:45:21.593Z,102162.03
2023-04-20T09:47:49.932Z,102143.47
2023-04-20T09:50:26.781Z,102150.66
2023-04-20T09:52:56.822Z,102154.88
2023-04-20T09:55:24.587Z,102151.75
2023-04-20T09:57:52.483Z,102150.06
2023-04-20T10:00:19.450Z,102155.47
2023-04-20T10:02:49.391Z,102153.81
2023-04-20T10:05:16.896Z,102139.19
2023-04-20T10:07:44.183Z,102138.97
2023-04-20T10:10:16.062Z,102142.13
2023-04-20T10:12:53.795Z,102135.81
2023-04-20T10:15:21.907Z,102129.63
2023-04-20T10:17:48.897Z,102140.22
2023-04-20T10:20:22.338Z,102137.53
2023-04-20T10:22:50.988Z,102133.31
2023-04-20T10:25:24.928Z,102144.03
2023-04-20T10:28:00.155Z,102132.75
2023-04-20T10:30:27.931Z,102135.09
2023-04-20T10:33:04.628Z,102136.59
2023-04-20T10:35:45.223Z,102136.03
2023-04-20T10:38:12.655Z,102117.16
2023-04-20T10:40:39.681Z,102120.22
2023-04-20T10:43:19.298Z,102108.69
2023-04-20T10:45:45.793Z,102108.44
2023-04-20T10:48:12.358Z,102114.28
2023-04-20T10:50:38.874Z,102110.66
2023-04-20T10:53:05.499Z,102118.44
2023-04-20T10:55:32.028Z,102108.09
2023-04-20T10:57:58.466Z,102107.75
2023-04-20T11:00:27.896Z,102099.47
2023-04-20T11:02:56.800Z,102093.78
2023-04-20T11:05:26.408Z,102094.72
2023-04-20T11:07:53.604Z,102093.59
2023-04-20T11:10:25.002Z,102081.19
2023-04-20T11:12:52.018Z,102086.59
2023-04-20T11:15:18.744Z,102084.59
2023-04-20T11:17:46.936Z,102092.72
2023-04-20T11:20:16.969Z,102076.88
2023-04-20T11:22:44.398Z,102090.84
2023-04-20T11:25:12.562Z,102080.22
2023-04-20T11:27:40.039Z,102088.13
2023-04-20T11:30:07.808Z,102062.28
2023-04-20T11:32:36.102Z,102061.19
2023-04-20T11:35:08.732Z,102058.34
2023-04-20T11:37:47.184Z,102068.47
2023-04-20T11:40:15.057Z,102066.69
2023-04-20T11:42:41.782Z,102047.31
2023-04-20T11:45:08.764Z,102067.72
2023-04-20T11:47:35.388Z,102054.38
2023-04-20T11:50:01.959Z,102072.94
2023-04-20T11:52:28.437Z,102054.78
2023-04-20T11:54:54.864Z,102059.41
2023-04-20T11:57:23.920Z,102070.03
2023-04-20T11:59:50.490Z,102055.75
2023-04-20T12:02:17.126Z,102067.47
2023-04-20T12:04:43.824Z,102076.97
2023-04-20T12:07:10.706Z,102072.91
2023-04-20T12:09:38.333Z,102045.81
2023-04-20T12:12:05.642Z,102066.53
2023-04-20T12:14:35.542Z,102059.28
2023-04-20T12:17:04.078Z,102065.63
2023-04-20T12:19:31.501Z,102056.00
2023-04-20T12:21:58.001Z,102056.13
2023-04-20T12:24:24.528Z,102055.84
2023-04-20T12:26:51.026Z,102058.91
2023-04-20T12:29:17.717Z,102051.44
2023-04-20T12:31:44.378Z,102048.47
2023-04-20T12:34:11.374Z,102051.75
2023-04-20T12:36:38.259Z,102051.19
2023-04-20T12:39:04.712Z,102048.13
2023-04-20T12:41:31.467Z,102043.78
2023-04-20T12:43:57.907Z,102040.63
2023-04-20T12:46:25.426Z,102040.63
2023-04-20T12:48:52.140Z,102048.50
2023-04-20T12:51:18.718Z,102033.38
2023-04-20T12:53:45.315Z,102046.22
2023-04-20T12:56:12.071Z,102041.09
2023-04-20T12:58:38.741Z,102041.66
2023-04-20T13:01:05.399Z,102039.38
2023-04-20T13:03:32.503Z,102022.72
2023-04-20T13:06:00.270Z,102026.03
2023-04-20T13:08:26.878Z,102028.53
2023-04-20T13:10:53.493Z,102044.28
2023-04-20T13:13:20.055Z,102029.91
2023-04-20T13:15:46.569Z,102029.50
2023-04-20T13:18:15.339Z,102043.16
2023-04-20T13:20:41.809Z,102041.47
2023-04-20T13:23:08.325Z,102026.47
2023-04-20T13:25:34.956Z,102043.97
2023-04-20T13:28:02.950Z,102030.53
2023-04-20T13:30:29.456Z,102025.97
2023-04-20T13:32:56.116Z,102023.69
2023-04-20T13:35:23.753Z,102013.47
2023-04-20T13:37:50.487Z,102021.19
2023-04-20T13:40:17.030Z,102005.44
2023-04-20T13:42:43.614Z,102010.94
2023-04-20T13:45:10.638Z,102019.91
2023-04-20T13:47:38.542Z,102016.00
2023-04-20T13:50:06.658Z,102012.97
2023-04-20T13:52:33.350Z,102002.66
2023-04-20T13:54:59.841Z,102019.81
2023-04-20T13:57:26.371Z,102005.00
2023-04-20T13:59:53.127Z,101993.53
2023-04-20T14:02:20.078Z,101980.25
2023-04-20T14:04:46.649Z,101991.72
2023-04-20T14:07:13.178Z,101982.25
2023-04-20T14:09:39.732Z,101983.91
2023-04-20T14:12:06.324Z,101987.25
2023-04-20T14:14:32.797Z,101992.97
2023-04-20T14:16:59.342Z,101982.00
2023-04-20T14:19:25.795Z,101981.78
2023-04-20T14:21:52.357Z,101988.09
2023-04-20T14:24:19.019Z,101991.09
2023-04-20T14:26:45.796Z,101987.66
2023-04-20T14:29:12.322Z,101978.00
2023-04-20T14:31:38.917Z,101980.94
2023-04-20T14:34:05.625Z,101973.28
2023-04-20T14:36:32.482Z,101977.78
2023-04-20T14:38:58.962Z,101985.94
2023-04-20T14:41:25.519Z,101979.97
2023-04-20T14:43:51.995Z,101970.84
2023-04-20T14:46:19.219Z,101969.06
2023-04-20T14:48:46.279Z,101960.06
2023-04-20T14:51:13.829Z,101952.97
2023-04-20T14:53:40.425Z,101942.47
2023-04-20T14:56:07.124Z,101961.97
2023-04-20T14:58:33.660Z,101958.13
2023-04-20T15:01:00.124Z,101964.78
2023-04-20T15:03:27.208Z,101960.41
2023-04-20T15:05:58.929Z,101973.03
2023-04-20T15:08:25.927Z,101963.09
2023-04-20T15:10:56.385Z,101970.06
2023-04-20T15:13:26.335Z,101957.56
2023-04-20T15:15:55.029Z,101955.44
2023-04-20T15:18:22.111Z,101955.78
2023-04-20T15:20:51.165Z,101948.13
2023-04-20T15:23:17.696Z,101953.13
2023-04-20T15:25:44.487Z,101936.34
2023-04-20T15:28:11.279Z,101940.34
2023-04-20T15:30:37.825Z,101939.00
2023-04-20T15:33:05.586Z,101938.00
2023-04-20T15:35:33.334Z,101929.69
2023-04-20T15:37:59.792Z,101924.84
2023-04-20T15:40:27.357Z,101938.00
2023-04-20T15:42:55.740Z,101931.50
2023-04-20T15:45:22.935Z,101932.34
2023-04-20T15:47:49.616Z,101944.31
2023-04-20T15:50:16.434Z,101932.47
2023-04-20T15:52:43.156Z,101923.84
2023-04-20T15:55:12.822Z,101922.31
2023-04-20T15:57:39.391Z,101933.47
2023-04-20T16:00:08.022Z,101934.97
2023-04-20T16:02:34.944Z,101924.31
2023-04-20T16:05:02.175Z,101921.00
2023-04-20T16:07:29.071Z,101918.38
2023-04-20T16:09:55.590Z,101929.50
2023-04-20T16:12:22.122Z,101924.69
2023-04-20T16:14:48.903Z,101915.34
2023-04-20T16:17:15.786Z,101923.13
2023-04-20T16:19:42.293Z,101934.81
2023-04-20T16:22:08.955Z,101927.50
2023-04-20T16:24:35.439Z,101924.38
2023-04-20T16:27:02.466Z,101941.81
2023-04-20T16:29:28.988Z,101939.63
2023-04-20T16:31:55.614Z,101945.78
2023-04-20T16:34:22.293Z,101946.44
2023-04-20T16:36:50.342Z,101944.47
2023-04-20T16:39:17.771Z,101939.13
2023-04-20T16:41:44.480Z,101925.38
2023-04-20T16:44:13.628Z,101924.69
2023-04-20T16:46:42.023Z,101928.03
2023-04-20T16:49:09.249Z,101928.00
2023-04-20T16:51:35.830Z,101921.50
2023-04-20T16:54:02.346Z,101928.50
2023-04-20T16:56:28.812Z,101914.03
2023-04-20T16:58:55.520Z,101909.53
2023-04-20T17:01:22.366Z,101913.53
2023-04-20T17:03:49.134Z,101920.03
2023-04-20T17:06:15.754Z,101917.06
2023-04-20T17:08:42.319Z,101926.19
2023-04-20T17:11:08.858Z,101914.88
2023-04-20T17:13:35.400Z,101929.16
2023-04-20T17:16:01.882Z,101925.00
2023-04-20T17:18:28.345Z,101927.81
2023-04-20T17:20:57.128Z,101929.81
2023-04-20T17:23:23.942Z,101919.00
2023-04-20T17:25:51.358Z,101928.47
2023-04-20T17:28:17.871Z,101927.16
2023-04-20T17:30:44.478Z,101925.16
2023-04-20T17:33:14.203Z,101930.16
2023-04-20T17:35:40.908Z,101924.97
2023-04-20T17:38:07.530Z,101930.81
2023-04-20T17:40:34.554Z,101932.47
2023-04-20T17:43:01.839Z,101927.50
2023-04-20T17:45:28.685Z,101923.31
2023-04-20T17:47:55.794Z,101933.47
2023-04-20T17:50:22.806Z,101941.28
2023-04-20T17:52:49.646Z,101939.78
2023-04-20T17:55:16.273Z,101944.13
2023-04-20T17:57:42.759Z,101962.06
2023-04-20T18:00:11.639Z,101953.25
2023-04-20T18:02:38.810Z,101948.78
2023-04-20T18:05:06.250Z,101949.91
2023-04-20T18:07:32.805Z,101953.75
2023-04-20T18:09:59.320Z,101957.06
2023-04-20T18:12:26.084Z,101952.56
2023-04-20T18:14:52.616Z,101951.22
2023-04-20T18:17:19.126Z,101945.75
2023-04-20T18:19:46.113Z,101950.53
2023-04-20T18:22:12.709Z,101949.72
2023-04-20T18:24:39.349Z,101958.03
2023-04-20T18:27:06.039Z,101943.06
2023-04-20T18:29:32.562Z,101941.88
2023-04-20T18:32:01.808Z,101945.72
2023-04-20T18:34:31.087Z,101949.69
2023-04-20T18:36:58.704Z,101944.50
2023-04-20T18:39:25.877Z,101959.97
2023-04-20T18:41:52.472Z,101945.00
2023-04-20T18:44:19.675Z,101953.97
2023-04-20T18:46:46.669Z,101949.00
2023-04-20T18:49:13.704Z,101960.97
2023-04-20T18:51:40.583Z,101962.97
2023-04-20T18:54:07.143Z,101957.28
2023-04-20T18:56:33.820Z,101959.44
2023-04-20T18:59:01.458Z,101962.09
2023-04-20T19:01:28.584Z,101955.78
2023-04-20T19:03:56.125Z,101966.94
2023-04-20T19:06:22.901Z,101970.38
2023-04-20T19:08:52.542Z,101973.53
2023-04-20T19:11:19.072Z,101978.84
2023-04-20T19:13:45.669Z,101979.16
2023-04-20T19:16:12.651Z,101982.13
2023-04-20T19:18:39.868Z,101996.56
2023-04-20T19:21:06.740Z,101990.75
2023-04-20T19:23:33.614Z,101993.84
2023-04-20T19:26:00.157Z,101992.34
2023-04-20T19:28:26.726Z,101998.13
2023-04-20T19:30:53.293Z,101991.09
2023-04-20T19:33:20.838Z,101994.91
2023-04-20T19:35:53.740Z,101992.91
2023-04-20T19:38:21.670Z,101983.56
2023-04-20T19:40:48.847Z,101977.22
2023-04-20T19:43:16.936Z,101977.53
2023-04-20T19:45:43.994Z,101986.47
2023-04-20T19:48:10.759Z,101985.97
2023-04-20T19:50:37.380Z,101990.06
2023-04-20T19:53:04.283Z,102000.00
2023-04-20T19:55:31.010Z,101980.06
2023-04-20T19:57:57.539Z,101984.19
2023-04-20T20:00:24.000Z,101983.63
2023-04-20T20:02:50.562Z,101997.19
2023-04-20T20:05:17.419Z,102004.16
2023-04-20T20:07:43.860Z,102002.13
2023-04-20T20:10:10.467Z,102001.75
2023-04-20T20:12:37.185Z,101994.94
2023-04-20T20:15:04.595Z,101999.19
2023-04-20T20:17:31.184Z,102003.97
2023-04-20T20:19:58.077Z,102005.13
2023-04-20T20:22:24.645Z,101999.94
2023-04-20T20:24:54.166Z,101995.25
2023-04-20T20:27:21.207Z,101983.97
2023-04-20T20:29:47.769Z,101976.69
2023-04-20T20:32:14.393Z,101979.50
2023-04-20T20:34:41.305Z,101959.72
2023-04-20T20:37:10.427Z,101966.16
2023-04-20T20:39:37.538Z,101960.19
2023-04-20T20:42:04.815Z,101976.78
2023-04-20T20:44:38.873Z,101976.09
2023-04-20T20:47:07.031Z,101968.13
2023-04-20T20:49:33.985Z,101957.81
2023-04-20T20:52:02.065Z,101969.25
2023-04-20T20:54:28.657Z,101962.75
2023-04-20T20:56:55.140Z,101958.56
2023-04-20T20:59:21.676Z,101945.22
2023-04-20T21:01:48.198Z,101958.78
2023-04-20T21:04:14.907Z,101934.34
2023-04-20T21:06:41.535Z,101933.34
2023-04-20T21:09:08.004Z,101941.50
2023-04-20T21:11:34.537Z,101950.63
2023-04-20T21:14:02.816Z,101953.69
2023-04-20T21:16:29.476Z,101934.63
2023-04-20T21:18:56.085Z,101938.78
2023-04-20T21:21:22.584Z,101946.06
2023-04-20T21:23:50.310Z,101950.84
2023-04-20T21:26:17.239Z,101951.13
2023-04-20T21:28:43.857Z,101950.28
2023-04-20T21:31:10.391Z,101952.81
2023-04-20T21:33:37.091Z,101940.56
2023-04-20T21:36:03.964Z,101935.50
2023-04-20T21:38:30.683Z,101938.91
2023-04-20T21:40:57.173Z,101936.56
2023-04-20T21:43:23.770Z,101938.84
2023-04-20T21:45:51.357Z,101945.44
2023-04-20T21:48:18.144Z,101935.81
2023-04-20T21:50:44.721Z,101945.44
2023-04-20T21:53:11.268Z,101951.41
2023-04-20T21:55:37.782Z,101944.44
2023-04-20T21:58:04.190Z,101944.16
2023-04-20T22:00:30.799Z,101951.25
2023-04-20T22:02:57.404Z,101957.53
2023-04-20T22:05:24.085Z,101961.16
2023-04-20T22:07:50.574Z,101954.34
2023-04-20T22:10:17.306Z,101958.69
2023-04-20T22:12:43.723Z,101959.94
2023-04-20T22:15:12.148Z,101958.97
2023-04-20T22:17:39.385Z,101957.59
2023-04-20T22:20:09.334Z,101982.81
2023-04-20T22:22:37.204Z,101952.44
2023-04-20T22:25:04.764Z,101955.34
2023-04-20T22:27:32.133Z,101947.00
2023-04-20T22:29:58.837Z,101941.69
2023-04-20T22:32:25.402Z,101948.38
2023-04-20T22:34:52.041Z,101946.69
2023-04-20T22:37:18.855Z,101953.50
2023-04-20T22:39:45.480Z,101932.00
2023-04-20T22:42:11.988Z,101938.06
2023-04-20T22:44:38.483Z,101932.09
2023-04-20T22:47:05.093Z,101923.44
2023-04-20T22:49:31.880Z,101924.44
2023-04-20T22:51:58.409Z,101929.44
2023-04-20T22:54:25.190Z,101913.16
2023-04-20T22:56:51.830Z,101906.09
2023-04-20T22:59:18.465Z,101925.03
2023-04-20T23:01:45.469Z,101908.75
2023-04-20T23:04:12.208Z,101912.38
2023-04-20T23:06:38.755Z,101911.81
2023-04-20T23:09:08.420Z,101906.78
2023-04-20T23:11:38.710Z,101893.16
2023-04-20T23:14:09.255Z,101898.16
2023-04-20T23:16:35.768Z,101887.97
2023-04-20T23:19:02.437Z,101885.19
2023-04-20T23:21:29.104Z,101870.00
2023-04-20T23:23:58.529Z,101863.63
2023-04-20T23:26:25.281Z,101881.56
2023-04-20T23:28:52.721Z,101854.25
2023-04-20T23:31:20.504Z,101838.06
2023-04-20T23:33:47.781Z,101822.63
2023-04-20T23:36:14.688Z,101823.75
2023-04-20T23:38:41.222Z,101841.16
2023-04-20T23:41:11.778Z,101845.91
2023-04-20T23:43:38.884Z,101840.47
2023-04-20T23:46:06.737Z,101847.56
2023-04-20T23:48:33.889Z,101850.81
2023-04-20T23:51:01.250Z,101850.00
2023-04-20T23:53:27.823Z,101849.91
2023-04-20T23:55:57.110Z,101833.38
2023-04-20T23:58:27.698Z,101834.50
